Aura, New Jersey
Current Conditions -  °F | °C
As of 9:54 AM on Wednesday 22 Oct 2014 (Local Time) from KPHL Reporting Station
Overcast Overcast  
Wind Chill: 58°   Ceiling: 1600
Heat Index: 58°   Visibility: 10mi
Dew Point: 52°   Wind: 15mph
Humidity: 81%   Direction: 30°NNE
Pressure: 29.88"   Gusts: 29mph
Location:  39.6996°N, 75.1187°W
Report Text: KPHL 221354Z 03013G25KT 10SM BKN016 OVC075 14/11 A2988 RMK AO2 PK WND 36032/1300 SLP118 T01440111 $
Loading
Personal Weather Stations






























Interactive Weather Map
Tropical Storm Tracking
New forecast layout! Learn more

10-Day Weather Forecast

Advertisements
Track Severe Weather on mobile